sensor_id;sensor_type;location;lat;lon;timestamp;P1;durP1;ratioP1;P2;durP2;ratioP2
74074;SDS011;62428;51.412;5.432;2023-05-07T00:01:18;7.07;;;4.70;;
74074;SDS011;62428;51.412;5.432;2023-05-07T00:03:44;6.73;;;4.50;;
74074;SDS011;62428;51.412;5.432;2023-05-07T00:06:09;6.63;;;4.30;;
74074;SDS011;62428;51.412;5.432;2023-05-07T00:08:37;8.27;;;5.10;;
74074;SDS011;62428;51.412;5.432;2023-05-07T00:11:03;8.70;;;5.30;;
74074;SDS011;62428;51.412;5.432;2023-05-07T00:13:28;10.63;;;6.57;;
74074;SDS011;62428;51.412;5.432;2023-05-07T00:16:00;11.18;;;7.05;;
74074;SDS011;62428;51.412;5.432;2023-05-07T00:18:25;11.00;;;7.30;;
74074;SDS011;62428;51.412;5.432;2023-05-07T00:20:51;10.30;;;6.67;;
74074;SDS011;62428;51.412;5.432;2023-05-07T00:23:16;7.53;;;5.93;;
74074;SDS011;62428;51.412;5.432;2023-05-07T00:25:41;10.27;;;6.17;;
74074;SDS011;62428;51.412;5.432;2023-05-07T00:28:07;8.13;;;5.97;;
74074;SDS011;62428;51.412;5.432;2023-05-07T00:30:32;7.63;;;6.13;;
74074;SDS011;62428;51.412;5.432;2023-05-07T00:32:57;7.57;;;6.23;;
74074;SDS011;62428;51.412;5.432;2023-05-07T00:35:23;10.70;;;6.25;;
74074;SDS011;62428;51.412;5.432;2023-05-07T00:37:48;8.23;;;6.00;;
74074;SDS011;62428;51.412;5.432;2023-05-07T00:40:13;8.50;;;6.37;;
74074;SDS011;62428;51.412;5.432;2023-05-07T00:42:39;8.50;;;6.50;;
74074;SDS011;62428;51.412;5.432;2023-05-07T00:45:04;13.70;;;5.93;;
74074;SDS011;62428;51.412;5.432;2023-05-07T00:47:30;9.70;;;5.97;;
74074;SDS011;62428;51.412;5.432;2023-05-07T00:49:56;8.50;;;6.60;;
74074;SDS011;62428;51.412;5.432;2023-05-07T00:52:22;8.33;;;5.70;;
74074;SDS011;62428;51.412;5.432;2023-05-07T00:54:50;7.63;;;5.78;;
74074;SDS011;62428;51.412;5.432;2023-05-07T00:57:16;8.18;;;6.10;;
74074;SDS011;62428;51.412;5.432;2023-05-07T00:59:42;7.80;;;6.57;;
74074;SDS011;62428;51.412;5.432;2023-05-07T01:02:08;7.93;;;5.90;;
74074;SDS011;62428;51.412;5.432;2023-05-07T01:04:33;10.85;;;6.85;;
74074;SDS011;62428;51.412;5.432;2023-05-07T01:06:58;10.33;;;6.30;;
74074;SDS011;62428;51.412;5.432;2023-05-07T01:09:26;8.05;;;6.53;;
74074;SDS011;62428;51.412;5.432;2023-05-07T01:11:52;8.40;;;6.60;;
74074;SDS011;62428;51.412;5.432;2023-05-07T01:14:19;12.52;;;7.68;;
74074;SDS011;62428;51.412;5.432;2023-05-07T01:16:46;9.07;;;7.22;;
74074;SDS011;62428;51.412;5.432;2023-05-07T01:19:12;9.10;;;6.50;;
74074;SDS011;62428;51.412;5.432;2023-05-07T01:21:41;9.70;;;6.47;;
74074;SDS011;62428;51.412;5.432;2023-05-07T01:24:11;12.13;;;6.45;;
74074;SDS011;62428;51.412;5.432;2023-05-07T01:26:36;9.30;;;6.73;;
74074;SDS011;62428;51.412;5.432;2023-05-07T01:29:02;10.48;;;7.53;;
74074;SDS011;62428;51.412;5.432;2023-05-07T01:31:27;9.73;;;6.97;;
74074;SDS011;62428;51.412;5.432;2023-05-07T01:33:55;10.48;;;7.25;;
74074;SDS011;62428;51.412;5.432;2023-05-07T01:36:23;12.18;;;8.07;;
74074;SDS011;62428;51.412;5.432;2023-05-07T01:38:52;9.88;;;7.32;;
74074;SDS011;62428;51.412;5.432;2023-05-07T01:41:18;9.73;;;7.33;;
74074;SDS011;62428;51.412;5.432;2023-05-07T01:43:44;10.70;;;7.03;;
74074;SDS011;62428;51.412;5.432;2023-05-07T01:46:11;10.40;;;8.20;;
74074;SDS011;62428;51.412;5.432;2023-05-07T01:48:37;10.48;;;7.30;;
74074;SDS011;62428;51.412;5.432;2023-05-07T01:51:04;9.55;;;7.05;;
74074;SDS011;62428;51.412;5.432;2023-05-07T01:53:35;11.55;;;8.23;;
74074;SDS011;62428;51.412;5.432;2023-05-07T01:56:01;11.90;;;8.85;;
74074;SDS011;62428;51.412;5.432;2023-05-07T01:58:27;12.00;;;8.77;;
74074;SDS011;62428;51.412;5.432;2023-05-07T02:00:52;12.57;;;9.17;;
74074;SDS011;62428;51.412;5.432;2023-05-07T02:03:17;14.77;;;10.65;;
74074;SDS011;62428;51.412;5.432;2023-05-07T02:05:43;15.18;;;10.07;;
74074;SDS011;62428;51.412;5.432;2023-05-07T02:08:08;14.57;;;10.20;;
74074;SDS011;62428;51.412;5.432;2023-05-07T02:10:33;13.07;;;10.33;;
74074;SDS011;62428;51.412;5.432;2023-05-07T02:12:58;15.27;;;10.20;;
74074;SDS011;62428;51.412;5.432;2023-05-07T02:15:26;17.52;;;9.93;;
74074;SDS011;62428;51.412;5.432;2023-05-07T02:17:58;16.70;;;10.57;;
74074;SDS011;62428;51.412;5.432;2023-05-07T02:20:25;16.50;;;9.90;;
74074;SDS011;62428;51.412;5.432;2023-05-07T02:22:50;13.57;;;9.83;;
74074;SDS011;62428;51.412;5.432;2023-05-07T02:25:16;14.67;;;10.07;;
74074;SDS011;62428;51.412;5.432;2023-05-07T02:27:41;16.13;;;10.73;;
74074;SDS011;62428;51.412;5.432;2023-05-07T02:30:06;16.63;;;11.30;;
74074;SDS011;62428;51.412;5.432;2023-05-07T02:32:32;18.92;;;11.93;;
74074;SDS011;62428;51.412;5.432;2023-05-07T02:34:57;16.07;;;11.50;;
74074;SDS011;62428;51.412;5.432;2023-05-07T02:37:23;16.97;;;11.57;;
74074;SDS011;62428;51.412;5.432;2023-05-07T02:39:48;16.30;;;11.33;;
74074;SDS011;62428;51.412;5.432;2023-05-07T02:42:13;17.83;;;11.47;;
74074;SDS011;62428;51.412;5.432;2023-05-07T02:44:39;16.73;;;12.37;;
74074;SDS011;62428;51.412;5.432;2023-05-07T02:47:04;18.07;;;11.40;;
74074;SDS011;62428;51.412;5.432;2023-05-07T02:49:29;17.05;;;12.02;;
74074;SDS011;62428;51.412;5.432;2023-05-07T02:51:55;17.77;;;12.13;;
74074;SDS011;62428;51.412;5.432;2023-05-07T02:54:20;17.23;;;11.53;;
74074;SDS011;62428;51.412;5.432;2023-05-07T02:56:46;18.53;;;12.60;;
74074;SDS011;62428;51.412;5.432;2023-05-07T02:59:11;17.75;;;12.65;;
74074;SDS011;62428;51.412;5.432;2023-05-07T03:01:36;18.73;;;12.55;;
74074;SDS011;62428;51.412;5.432;2023-05-07T03:04:02;19.33;;;12.37;;
74074;SDS011;62428;51.412;5.432;2023-05-07T03:06:27;18.33;;;13.00;;
74074;SDS011;62428;51.412;5.432;2023-05-07T03:08:52;18.93;;;12.80;;
74074;SDS011;62428;51.412;5.432;2023-05-07T03:11:18;19.47;;;13.47;;
74074;SDS011;62428;51.412;5.432;2023-05-07T03:13:43;20.05;;;13.40;;
74074;SDS011;62428;51.412;5.432;2023-05-07T03:16:09;17.83;;;12.85;;
74074;SDS011;62428;51.412;5.432;2023-05-07T03:18:34;18.77;;;13.23;;
74074;SDS011;62428;51.412;5.432;2023-05-07T03:20:59;20.10;;;13.80;;
74074;SDS011;62428;51.412;5.432;2023-05-07T03:23:25;19.50;;;12.73;;
74074;SDS011;62428;51.412;5.432;2023-05-07T03:25:50;21.20;;;13.63;;
74074;SDS011;62428;51.412;5.432;2023-05-07T03:28:16;19.98;;;13.82;;
74074;SDS011;62428;51.412;5.432;2023-05-07T03:30:41;20.37;;;14.20;;
74074;SDS011;62428;51.412;5.432;2023-05-07T03:33:06;21.13;;;14.43;;
74074;SDS011;62428;51.412;5.432;2023-05-07T03:35:32;23.23;;;14.40;;
74074;SDS011;62428;51.412;5.432;2023-05-07T03:37:57;22.03;;;14.93;;
74074;SDS011;62428;51.412;5.432;2023-05-07T03:40:22;22.13;;;14.77;;
74074;SDS011;62428;51.412;5.432;2023-05-07T03:42:48;22.10;;;14.73;;
74074;SDS011;62428;51.412;5.432;2023-05-07T03:45:13;20.37;;;14.03;;
74074;SDS011;62428;51.412;5.432;2023-05-07T03:47:38;24.77;;;14.53;;
74074;SDS011;62428;51.412;5.432;2023-05-07T03:50:04;22.73;;;14.87;;
74074;SDS011;62428;51.412;5.432;2023-05-07T03:52:30;23.00;;;15.18;;
74074;SDS011;62428;51.412;5.432;2023-05-07T03:54:55;25.57;;;16.57;;
74074;SDS011;62428;51.412;5.432;2023-05-07T03:57:21;20.93;;;15.07;;
74074;SDS011;62428;51.412;5.432;2023-05-07T03:59:46;26.33;;;15.18;;
74074;SDS011;62428;51.412;5.432;2023-05-07T04:02:11;20.65;;;14.80;;
74074;SDS011;62428;51.412;5.432;2023-05-07T04:04:37;30.67;;;15.57;;
74074;SDS011;62428;51.412;5.432;2023-05-07T04:07:02;24.77;;;14.83;;
74074;SDS011;62428;51.412;5.432;2023-05-07T04:09:28;22.33;;;14.27;;
74074;SDS011;62428;51.412;5.432;2023-05-07T04:11:53;20.70;;;14.90;;
74074;SDS011;62428;51.412;5.432;2023-05-07T04:14:18;23.55;;;16.05;;
74074;SDS011;62428;51.412;5.432;2023-05-07T04:16:44;22.53;;;15.20;;
74074;SDS011;62428;51.412;5.432;2023-05-07T04:19:09;21.60;;;14.50;;
74074;SDS011;62428;51.412;5.432;2023-05-07T04:21:35;23.33;;;15.20;;
74074;SDS011;62428;51.412;5.432;2023-05-07T04:24:00;20.80;;;14.50;;
74074;SDS011;62428;51.412;5.432;2023-05-07T04:26:25;21.93;;;15.17;;
74074;SDS011;62428;51.412;5.432;2023-05-07T04:28:50;21.27;;;14.50;;
74074;SDS011;62428;51.412;5.432;2023-05-07T04:31:17;21.20;;;14.23;;
74074;SDS011;62428;51.412;5.432;2023-05-07T04:33:42;25.40;;;15.83;;
74074;SDS011;62428;51.412;5.432;2023-05-07T04:36:08;22.03;;;15.20;;
74074;SDS011;62428;51.412;5.432;2023-05-07T04:38:33;20.60;;;14.88;;
74074;SDS011;62428;51.412;5.432;2023-05-07T04:41:05;24.13;;;16.23;;
74074;SDS011;62428;51.412;5.432;2023-05-07T04:43:31;24.83;;;17.15;;
74074;SDS011;62428;51.412;5.432;2023-05-07T04:45:57;25.03;;;16.30;;
74074;SDS011;62428;51.412;5.432;2023-05-07T04:48:22;27.30;;;16.70;;
74074;SDS011;62428;51.412;5.432;2023-05-07T04:50:48;26.30;;;16.10;;
74074;SDS011;62428;51.412;5.432;2023-05-07T04:53:14;23.20;;;15.38;;
74074;SDS011;62428;51.412;5.432;2023-05-07T04:55:39;23.47;;;15.53;;
74074;SDS011;62428;51.412;5.432;2023-05-07T04:58:04;22.80;;;15.63;;
74074;SDS011;62428;51.412;5.432;2023-05-07T05:00:30;24.45;;;16.42;;
74074;SDS011;62428;51.412;5.432;2023-05-07T05:02:56;21.03;;;15.10;;
74074;SDS011;62428;51.412;5.432;2023-05-07T05:05:21;27.65;;;15.93;;
74074;SDS011;62428;51.412;5.432;2023-05-07T05:07:46;25.23;;;15.97;;
74074;SDS011;62428;51.412;5.432;2023-05-07T05:10:12;23.97;;;16.67;;
74074;SDS011;62428;51.412;5.432;2023-05-07T05:12:37;25.60;;;16.50;;
74074;SDS011;62428;51.412;5.432;2023-05-07T05:15:03;26.33;;;17.67;;
74074;SDS011;62428;51.412;5.432;2023-05-07T05:17:29;23.95;;;16.08;;
74074;SDS011;62428;51.412;5.432;2023-05-07T05:19:54;29.10;;;17.47;;
74074;SDS011;62428;51.412;5.432;2023-05-07T05:22:20;25.48;;;17.58;;
74074;SDS011;62428;51.412;5.432;2023-05-07T05:24:45;26.20;;;17.42;;
74074;SDS011;62428;51.412;5.432;2023-05-07T05:27:10;22.40;;;16.43;;
74074;SDS011;62428;51.412;5.432;2023-05-07T05:29:36;30.10;;;17.93;;
74074;SDS011;62428;51.412;5.432;2023-05-07T05:32:01;26.13;;;16.67;;
74074;SDS011;62428;51.412;5.432;2023-05-07T05:34:26;23.27;;;16.83;;
74074;SDS011;62428;51.412;5.432;2023-05-07T05:36:52;25.40;;;16.30;;
74074;SDS011;62428;51.412;5.432;2023-05-07T05:39:17;26.25;;;16.45;;
74074;SDS011;62428;51.412;5.432;2023-05-07T05:41:43;25.43;;;16.63;;
74074;SDS011;62428;51.412;5.432;2023-05-07T05:44:08;25.00;;;17.13;;
74074;SDS011;62428;51.412;5.432;2023-05-07T05:46:34;24.17;;;16.93;;
74074;SDS011;62428;51.412;5.432;2023-05-07T05:48:59;26.05;;;15.75;;
74074;SDS011;62428;51.412;5.432;2023-05-07T05:51:25;23.37;;;15.20;;
74074;SDS011;62428;51.412;5.432;2023-05-07T05:53:51;26.52;;;16.63;;
74074;SDS011;62428;51.412;5.432;2023-05-07T05:56:16;26.53;;;16.67;;
74074;SDS011;62428;51.412;5.432;2023-05-07T05:58:42;25.17;;;17.17;;
74074;SDS011;62428;51.412;5.432;2023-05-07T06:01:07;22.80;;;16.10;;
74074;SDS011;62428;51.412;5.432;2023-05-07T06:03:33;23.10;;;15.23;;
74074;SDS011;62428;51.412;5.432;2023-05-07T06:05:58;21.58;;;15.25;;
74074;SDS011;62428;51.412;5.432;2023-05-07T06:08:25;25.55;;;15.88;;
74074;SDS011;62428;51.412;5.432;2023-05-07T06:10:50;24.08;;;16.08;;
74074;SDS011;62428;51.412;5.432;2023-05-07T06:13:15;25.20;;;16.03;;
74074;SDS011;62428;51.412;5.432;2023-05-07T06:15:41;25.23;;;16.13;;
74074;SDS011;62428;51.412;5.432;2023-05-07T06:18:06;24.63;;;14.63;;
74074;SDS011;62428;51.412;5.432;2023-05-07T06:20:32;21.20;;;14.13;;
74074;SDS011;62428;51.412;5.432;2023-05-07T06:22:57;23.37;;;15.17;;
74074;SDS011;62428;51.412;5.432;2023-05-07T06:25:22;26.63;;;15.87;;
74074;SDS011;62428;51.412;5.432;2023-05-07T06:27:48;23.77;;;15.73;;
74074;SDS011;62428;51.412;5.432;2023-05-07T06:30:13;25.03;;;14.80;;
74074;SDS011;62428;51.412;5.432;2023-05-07T06:32:39;20.63;;;13.43;;
74074;SDS011;62428;51.412;5.432;2023-05-07T06:35:05;23.17;;;14.07;;
74074;SDS011;62428;51.412;5.432;2023-05-07T06:37:31;25.10;;;14.30;;
74074;SDS011;62428;51.412;5.432;2023-05-07T06:39:56;22.87;;;14.40;;
74074;SDS011;62428;51.412;5.432;2023-05-07T06:42:21;24.40;;;14.63;;
74074;SDS011;62428;51.412;5.432;2023-05-07T06:44:47;24.63;;;14.70;;
74074;SDS011;62428;51.412;5.432;2023-05-07T06:47:12;19.23;;;13.37;;
74074;SDS011;62428;51.412;5.432;2023-05-07T06:49:37;23.83;;;14.90;;
74074;SDS011;62428;51.412;5.432;2023-05-07T06:52:03;19.80;;;14.43;;
74074;SDS011;62428;51.412;5.432;2023-05-07T06:54:28;21.57;;;13.33;;
74074;SDS011;62428;51.412;5.432;2023-05-07T06:56:54;18.92;;;13.07;;
74074;SDS011;62428;51.412;5.432;2023-05-07T06:59:19;20.40;;;12.67;;
74074;SDS011;62428;51.412;5.432;2023-05-07T07:01:44;20.17;;;12.93;;
74074;SDS011;62428;51.412;5.432;2023-05-07T07:04:10;20.57;;;13.00;;
74074;SDS011;62428;51.412;5.432;2023-05-07T07:06:35;20.90;;;13.10;;
74074;SDS011;62428;51.412;5.432;2023-05-07T07:09:00;19.83;;;13.13;;
74074;SDS011;62428;51.412;5.432;2023-05-07T07:11:26;20.33;;;13.13;;
74074;SDS011;62428;51.412;5.432;2023-05-07T07:13:51;18.45;;;13.32;;
74074;SDS011;62428;51.412;5.432;2023-05-07T07:16:19;19.20;;;13.13;;
74074;SDS011;62428;51.412;5.432;2023-05-07T07:18:45;21.13;;;13.80;;
74074;SDS011;62428;51.412;5.432;2023-05-07T07:21:10;20.97;;;14.40;;
74074;SDS011;62428;51.412;5.432;2023-05-07T07:23:35;23.13;;;13.40;;
74074;SDS011;62428;51.412;5.432;2023-05-07T07:26:01;19.50;;;14.10;;
74074;SDS011;62428;51.412;5.432;2023-05-07T07:28:26;19.42;;;13.60;;
74074;SDS011;62428;51.412;5.432;2023-05-07T07:30:51;18.53;;;13.00;;
74074;SDS011;62428;51.412;5.432;2023-05-07T07:33:17;19.00;;;12.87;;
74074;SDS011;62428;51.412;5.432;2023-05-07T07:35:42;20.87;;;13.80;;
74074;SDS011;62428;51.412;5.432;2023-05-07T07:38:07;20.87;;;12.30;;
74074;SDS011;62428;51.412;5.432;2023-05-07T07:40:36;17.97;;;12.90;;
74074;SDS011;62428;51.412;5.432;2023-05-07T07:43:01;19.48;;;13.60;;
74074;SDS011;62428;51.412;5.432;2023-05-07T07:45:27;20.73;;;13.33;;
74074;SDS011;62428;51.412;5.432;2023-05-07T07:47:52;17.97;;;13.27;;
74074;SDS011;62428;51.412;5.432;2023-05-07T07:50:17;20.57;;;12.83;;
74074;SDS011;62428;51.412;5.432;2023-05-07T07:52:43;23.35;;;14.48;;
74074;SDS011;62428;51.412;5.432;2023-05-07T07:55:09;16.90;;;12.30;;
74074;SDS011;62428;51.412;5.432;2023-05-07T07:57:34;18.33;;;12.85;;
74074;SDS011;62428;51.412;5.432;2023-05-07T07:59:59;18.40;;;13.00;;
74074;SDS011;62428;51.412;5.432;2023-05-07T08:02:25;19.93;;;12.70;;
74074;SDS011;62428;51.412;5.432;2023-05-07T08:04:51;20.75;;;13.30;;
74074;SDS011;62428;51.412;5.432;2023-05-07T08:07:16;18.23;;;12.37;;
74074;SDS011;62428;51.412;5.432;2023-05-07T08:09:45;16.98;;;12.95;;
74074;SDS011;62428;51.412;5.432;2023-05-07T08:12:10;17.57;;;12.80;;
74074;SDS011;62428;51.412;5.432;2023-05-07T08:14:36;20.00;;;12.50;;
74074;SDS011;62428;51.412;5.432;2023-05-07T08:17:02;18.17;;;12.25;;
74074;SDS011;62428;51.412;5.432;2023-05-07T08:19:27;16.53;;;12.37;;
74074;SDS011;62428;51.412;5.432;2023-05-07T08:21:52;18.60;;;12.70;;
74074;SDS011;62428;51.412;5.432;2023-05-07T08:24:18;16.77;;;12.03;;
74074;SDS011;62428;51.412;5.432;2023-05-07T08:26:44;18.77;;;11.73;;
74074;SDS011;62428;51.412;5.432;2023-05-07T08:29:10;19.65;;;12.15;;
74074;SDS011;62428;51.412;5.432;2023-05-07T08:31:35;19.05;;;11.90;;
74074;SDS011;62428;51.412;5.432;2023-05-07T08:34:01;17.02;;;12.05;;
74074;SDS011;62428;51.412;5.432;2023-05-07T08:36:26;16.60;;;10.87;;
74074;SDS011;62428;51.412;5.432;2023-05-07T08:38:52;15.67;;;10.50;;
74074;SDS011;62428;51.412;5.432;2023-05-07T08:41:18;16.27;;;11.40;;
74074;SDS011;62428;51.412;5.432;2023-05-07T08:43:45;13.63;;;10.50;;
74074;SDS011;62428;51.412;5.432;2023-05-07T08:46:16;13.80;;;10.73;;
74074;SDS011;62428;51.412;5.432;2023-05-07T08:48:47;16.52;;;11.35;;
74074;SDS011;62428;51.412;5.432;2023-05-07T08:51:15;15.02;;;11.13;;
74074;SDS011;62428;51.412;5.432;2023-05-07T08:53:42;14.75;;;11.35;;
74074;SDS011;62428;51.412;5.432;2023-05-07T08:56:08;17.03;;;11.20;;
74074;SDS011;62428;51.412;5.432;2023-05-07T08:58:34;19.48;;;11.48;;
74074;SDS011;62428;51.412;5.432;2023-05-07T09:01:17;14.67;;;10.83;;
74074;SDS011;62428;51.412;5.432;2023-05-07T09:03:46;18.80;;;11.13;;
74074;SDS011;62428;51.412;5.432;2023-05-07T09:06:12;15.98;;;11.18;;
74074;SDS011;62428;51.412;5.432;2023-05-07T09:08:37;14.57;;;10.57;;
74074;SDS011;62428;51.412;5.432;2023-05-07T09:11:03;15.90;;;10.77;;
74074;SDS011;62428;51.412;5.432;2023-05-07T09:13:28;19.80;;;11.13;;
74074;SDS011;62428;51.412;5.432;2023-05-07T09:15:54;15.88;;;11.18;;
74074;SDS011;62428;51.412;5.432;2023-05-07T09:18:20;16.03;;;10.67;;
74074;SDS011;62428;51.412;5.432;2023-05-07T09:20:45;16.03;;;10.50;;
74074;SDS011;62428;51.412;5.432;2023-05-07T09:23:11;13.07;;;9.98;;
74074;SDS011;62428;51.412;5.432;2023-05-07T09:25:36;14.43;;;9.83;;
74074;SDS011;62428;51.412;5.432;2023-05-07T09:28:03;13.48;;;9.70;;
74074;SDS011;62428;51.412;5.432;2023-05-07T09:30:30;13.00;;;9.63;;
74074;SDS011;62428;51.412;5.432;2023-05-07T09:33:01;12.55;;;9.57;;
74074;SDS011;62428;51.412;5.432;2023-05-07T09:35:28;12.52;;;9.75;;
74074;SDS011;62428;51.412;5.432;2023-05-07T09:37:55;15.82;;;9.95;;
74074;SDS011;62428;51.412;5.432;2023-05-07T09:40:22;15.77;;;9.47;;
74074;SDS011;62428;51.412;5.432;2023-05-07T09:42:49;14.38;;;9.07;;
74074;SDS011;62428;51.412;5.432;2023-05-07T09:45:15;12.77;;;9.98;;
74074;SDS011;62428;51.412;5.432;2023-05-07T09:47:42;13.60;;;9.52;;
74074;SDS011;62428;51.412;5.432;2023-05-07T09:50:11;13.93;;;8.48;;
74074;SDS011;62428;51.412;5.432;2023-05-07T09:52:38;11.43;;;8.07;;
74074;SDS011;62428;51.412;5.432;2023-05-07T09:55:05;12.90;;;8.13;;
74074;SDS011;62428;51.412;5.432;2023-05-07T09:57:32;11.63;;;7.88;;
74074;SDS011;62428;51.412;5.432;2023-05-07T09:59:58;13.88;;;8.43;;
74074;SDS011;62428;51.412;5.432;2023-05-07T10:02:27;13.48;;;8.10;;
74074;SDS011;62428;51.412;5.432;2023-05-07T10:04:55;11.50;;;7.90;;
74074;SDS011;62428;51.412;5.432;2023-05-07T10:07:23;10.00;;;7.50;;
74074;SDS011;62428;51.412;5.432;2023-05-07T10:09:50;10.95;;;6.72;;
74074;SDS011;62428;51.412;5.432;2023-05-07T10:12:16;12.32;;;7.13;;
74074;SDS011;62428;51.412;5.432;2023-05-07T10:14:42;8.67;;;6.40;;
74074;SDS011;62428;51.412;5.432;2023-05-07T10:17:09;12.68;;;7.72;;
74074;SDS011;62428;51.412;5.432;2023-05-07T10:19:36;11.15;;;6.95;;
74074;SDS011;62428;51.412;5.432;2023-05-07T10:22:04;9.95;;;6.32;;
74074;SDS011;62428;51.412;5.432;2023-05-07T10:24:33;9.77;;;6.38;;
74074;SDS011;62428;51.412;5.432;2023-05-07T10:27:01;11.57;;;7.70;;
74074;SDS011;62428;51.412;5.432;2023-05-07T10:29:49;8.30;;;6.38;;
74074;SDS011;62428;51.412;5.432;2023-05-07T10:35:19;11.50;;;7.30;;
74074;SDS011;62428;51.412;5.432;2023-05-07T10:37:48;10.30;;;7.47;;
74074;SDS011;62428;51.412;5.432;2023-05-07T10:40:14;11.83;;;7.33;;
74074;SDS011;62428;51.412;5.432;2023-05-07T10:42:52;11.90;;;7.35;;
74074;SDS011;62428;51.412;5.432;2023-05-07T10:45:22;8.75;;;6.75;;
74074;SDS011;62428;51.412;5.432;2023-05-07T10:48:07;10.23;;;6.80;;
74074;SDS011;62428;51.412;5.432;2023-05-07T10:50:34;8.90;;;6.63;;
74074;SDS011;62428;51.412;5.432;2023-05-07T10:55:48;8.35;;;6.28;;
74074;SDS011;62428;51.412;5.432;2023-05-07T11:00:45;8.63;;;6.80;;
74074;SDS011;62428;51.412;5.432;2023-05-07T11:03:11;13.00;;;7.70;;
74074;SDS011;62428;51.412;5.432;2023-05-07T11:05:37;11.60;;;7.93;;
74074;SDS011;62428;51.412;5.432;2023-05-07T11:08:03;10.75;;;7.55;;
74074;SDS011;62428;51.412;5.432;2023-05-07T11:16:20;9.23;;;7.93;;
74074;SDS011;62428;51.412;5.432;2023-05-07T11:18:53;11.30;;;7.43;;
74074;SDS011;62428;51.412;5.432;2023-05-07T11:21:53;9.63;;;7.35;;
74074;SDS011;62428;51.412;5.432;2023-05-07T11:24:11;9.37;;;7.07;;
74074;SDS011;62428;51.412;5.432;2023-05-07T11:26:47;10.98;;;6.30;;
74074;SDS011;62428;51.412;5.432;2023-05-07T11:29:16;8.70;;;7.07;;
74074;SDS011;62428;51.412;5.432;2023-05-07T11:31:43;10.33;;;7.37;;
74074;SDS011;62428;51.412;5.432;2023-05-07T11:34:09;9.80;;;7.65;;
74074;SDS011;62428;51.412;5.432;2023-05-07T11:36:37;10.47;;;7.33;;
74074;SDS011;62428;51.412;5.432;2023-05-07T11:39:22;9.75;;;7.18;;
74074;SDS011;62428;51.412;5.432;2023-05-07T11:41:58;9.45;;;7.72;;
74074;SDS011;62428;51.412;5.432;2023-05-07T11:44:25;9.80;;;7.22;;
74074;SDS011;62428;51.412;5.432;2023-05-07T11:46:50;8.07;;;6.87;;
74074;SDS011;62428;51.412;5.432;2023-05-07T11:49:16;10.20;;;7.97;;
74074;SDS011;62428;51.412;5.432;2023-05-07T11:51:42;11.40;;;7.50;;
74074;SDS011;62428;51.412;5.432;2023-05-07T11:54:08;15.37;;;7.17;;
74074;SDS011;62428;51.412;5.432;2023-05-07T11:56:36;13.03;;;6.67;;
74074;SDS011;62428;51.412;5.432;2023-05-07T11:59:01;11.07;;;7.65;;
74074;SDS011;62428;51.412;5.432;2023-05-07T12:01:27;8.33;;;6.67;;
74074;SDS011;62428;51.412;5.432;2023-05-07T12:03:52;9.97;;;6.27;;
74074;SDS011;62428;51.412;5.432;2023-05-07T12:06:18;9.30;;;5.90;;
74074;SDS011;62428;51.412;5.432;2023-05-07T12:08:44;8.13;;;5.78;;
74074;SDS011;62428;51.412;5.432;2023-05-07T12:11:15;10.52;;;6.28;;
74074;SDS011;62428;51.412;5.432;2023-05-07T12:13:42;17.10;;;8.20;;
74074;SDS011;62428;51.412;5.432;2023-05-07T12:16:08;12.33;;;8.73;;
74074;SDS011;62428;51.412;5.432;2023-05-07T12:18:34;10.07;;;7.10;;
74074;SDS011;62428;51.412;5.432;2023-05-07T12:21:01;16.03;;;6.70;;
74074;SDS011;62428;51.412;5.432;2023-05-07T12:23:26;28.63;;;7.15;;
74074;SDS011;62428;51.412;5.432;2023-05-07T12:25:52;17.43;;;5.10;;
74074;SDS011;62428;51.412;5.432;2023-05-07T12:28:17;11.20;;;3.57;;
74074;SDS011;62428;51.412;5.432;2023-05-07T12:30:44;23.25;;;4.68;;
74074;SDS011;62428;51.412;5.432;2023-05-07T12:33:11;12.67;;;3.43;;
74074;SDS011;62428;51.412;5.432;2023-05-07T12:35:38;12.73;;;3.60;;
74074;SDS011;62428;51.412;5.432;2023-05-07T12:38:09;13.52;;;3.47;;
74074;SDS011;62428;51.412;5.432;2023-05-07T12:40:47;10.35;;;3.17;;
74074;SDS011;62428;51.412;5.432;2023-05-07T12:43:19;9.63;;;3.10;;
74074;SDS011;62428;51.412;5.432;2023-05-07T12:45:46;11.57;;;2.60;;
74074;SDS011;62428;51.412;5.432;2023-05-07T12:48:14;8.77;;;2.40;;
74074;SDS011;62428;51.412;5.432;2023-05-07T12:50:39;6.83;;;2.13;;
74074;SDS011;62428;51.412;5.432;2023-05-07T12:53:05;9.13;;;2.20;;
74074;SDS011;62428;51.412;5.432;2023-05-07T12:55:34;2.35;;;1.52;;
74074;SDS011;62428;51.412;5.432;2023-05-07T12:58:06;2.70;;;1.50;;
74074;SDS011;62428;51.412;5.432;2023-05-07T13:00:40;4.18;;;1.55;;
74074;SDS011;62428;51.412;5.432;2023-05-07T13:03:06;5.63;;;1.95;;
74074;SDS011;62428;51.412;5.432;2023-05-07T13:05:32;7.23;;;2.20;;
74074;SDS011;62428;51.412;5.432;2023-05-07T13:07:57;7.15;;;2.22;;
74074;SDS011;62428;51.412;5.432;2023-05-07T13:10:23;5.72;;;2.88;;
74074;SDS011;62428;51.412;5.432;2023-05-07T13:12:49;4.93;;;2.53;;
74074;SDS011;62428;51.412;5.432;2023-05-07T13:15:15;3.93;;;2.20;;
74074;SDS011;62428;51.412;5.432;2023-05-07T13:17:41;5.25;;;2.20;;
74074;SDS011;62428;51.412;5.432;2023-05-07T13:20:06;4.33;;;1.77;;
74074;SDS011;62428;51.412;5.432;2023-05-07T13:22:34;2.95;;;1.63;;
74074;SDS011;62428;51.412;5.432;2023-05-07T13:24:59;3.63;;;1.40;;
74074;SDS011;62428;51.412;5.432;2023-05-07T13:27:24;3.03;;;1.30;;
74074;SDS011;62428;51.412;5.432;2023-05-07T13:29:50;2.13;;;1.35;;
74074;SDS011;62428;51.412;5.432;2023-05-07T13:32:16;3.40;;;1.60;;
74074;SDS011;62428;51.412;5.432;2023-05-07T13:34:41;6.80;;;1.80;;
74074;SDS011;62428;51.412;5.432;2023-05-07T13:37:06;7.40;;;2.07;;
74074;SDS011;62428;51.412;5.432;2023-05-07T13:39:32;4.28;;;2.15;;
74074;SDS011;62428;51.412;5.432;2023-05-07T13:41:58;6.30;;;1.83;;
74074;SDS011;62428;51.412;5.432;2023-05-07T13:44:23;7.05;;;2.28;;
74074;SDS011;62428;51.412;5.432;2023-05-07T13:46:49;4.30;;;1.50;;
74074;SDS011;62428;51.412;5.432;2023-05-07T13:49:14;7.13;;;1.50;;
74074;SDS011;62428;51.412;5.432;2023-05-07T13:51:39;5.83;;;1.50;;
74074;SDS011;62428;51.412;5.432;2023-05-07T13:54:05;2.43;;;1.00;;
74074;SDS011;62428;51.412;5.432;2023-05-07T13:56:30;4.10;;;1.30;;
74074;SDS011;62428;51.412;5.432;2023-05-07T13:58:57;3.90;;;1.60;;
74074;SDS011;62428;51.412;5.432;2023-05-07T14:01:23;3.42;;;1.65;;
74074;SDS011;62428;51.412;5.432;2023-05-07T14:03:48;2.33;;;1.37;;
74074;SDS011;62428;51.412;5.432;2023-05-07T14:06:13;4.70;;;1.77;;
74074;SDS011;62428;51.412;5.432;2023-05-07T14:08:39;3.63;;;2.00;;
74074;SDS011;62428;51.412;5.432;2023-05-07T14:11:04;3.10;;;2.05;;
74074;SDS011;62428;51.412;5.432;2023-05-07T14:13:29;6.03;;;2.77;;
74074;SDS011;62428;51.412;5.432;2023-05-07T14:15:55;4.53;;;3.20;;
74074;SDS011;62428;51.412;5.432;2023-05-07T14:18:21;6.22;;;3.42;;
74074;SDS011;62428;51.412;5.432;2023-05-07T14:20:47;5.80;;;3.60;;
74074;SDS011;62428;51.412;5.432;2023-05-07T14:23:13;5.53;;;3.58;;
74074;SDS011;62428;51.412;5.432;2023-05-07T14:25:39;4.93;;;3.77;;
74074;SDS011;62428;51.412;5.432;2023-05-07T14:28:04;7.30;;;3.78;;
74074;SDS011;62428;51.412;5.432;2023-05-07T14:30:30;6.87;;;4.27;;
74074;SDS011;62428;51.412;5.432;2023-05-07T14:32:55;9.07;;;5.50;;
74074;SDS011;62428;51.412;5.432;2023-05-07T14:35:21;7.57;;;5.67;;
74074;SDS011;62428;51.412;5.432;2023-05-07T14:37:46;10.33;;;7.13;;
74074;SDS011;62428;51.412;5.432;2023-05-07T14:40:12;7.30;;;5.23;;